Photometre #859[NE_1.6] Lille AOT

File : 20190928_859.hum

28/09/2019,06:39:11,TEMP=13.9,BA=5.64,STAT.A=5.5,ExtBa=13.82
28/09/2019,06:43:19,TEMP=14.1,BA=5.64,STAT.A=5.0,ExtBa=13.78
28/09/2019,06:48:09,TEMP=14.2,BA=5.64,STAT.A=5.5,ExtBa=13.77
28/09/2019,06:53:55,TEMP=14.2,BA=5.64,STAT.A=5.5,ExtBa=13.77
28/09/2019,07:00:53,TEMP=14.3,BA=5.64,STAT.A=5.5,ExtBa=13.79
28/09/2019,07:09:32,TEMP=14.4,BA=5.64,STAT.A=5.5,ExtBa=13.80
28/09/2019,07:12:21,TEMP=14.8,BA=5.64,STAT.D=5.0,ExtBa=13.68
28/09/2019,07:15:21,TEMP=15.0,BA=5.64,STAT.D=5.5,ExtBa=13.54
28/09/2019,07:20:31,TEMP=14.9,BA=5.64,STAT.B=5.5,ExtBa=13.59
28/09/2019,07:30:28,TEMP=15.2,BA=5.64,STAT.A=5.0,ExtBa=12.91
28/09/2019,07:32:22,TEMP=15.5,BA=5.64,STAT.A=5.0,ExtBa=12.98
28/09/2019,07:36:21,TEMP=15.4,BA=5.64,STAT.D=5.5,ExtBa=13.09
28/09/2019,07:38:33,TEMP=15.7,BA=5.64,STAT.A=5.0,ExtBa=13.11
28/09/2019,07:42:21,TEMP=15.6,BA=5.64,STAT.D=5.5,ExtBa=13.16
28/09/2019,07:46:16,TEMP=15.6,BA=5.64,STAT.A=5.5,ExtBa=13.23
28/09/2019,07:54:54,TEMP=15.8,BA=5.64,STAT.h
28/09/2019,07:57:21,TEMP=15.6,BA=5.64,STAT.D=5.5,ExtBa=13.44
28/09/2019,08:00:21,TEMP=15.9,BA=5.64,STAT.D=5.5,ExtBa=13.35
28/09/2019,08:03:21,TEMP=16.1,BA=5.64,STAT.D=5.5,ExtBa=13.26
28/09/2019,08:05:50,TEMP=16.4,BA=5.64,STAT.A=5.5,ExtBa=13.11
28/09/2019,08:09:21,TEMP=16.4,BA=5.64,STAT.D=5.5,ExtBa=13.14
28/09/2019,08:12:21,TEMP=16.7,BA=5.64,STAT.D=5.5,ExtBa=13.03
28/09/2019,08:15:21,TEMP=16.7,BA=5.64,STAT.D=5.5,ExtBa=13.09
28/09/2019,08:18:29,TEMP=16.6,BA=5.64,STAT.A=5.5,ExtBa=13.11
28/09/2019,08:21:21,TEMP=16.5,BA=5.64,STAT.D=5.5,ExtBa=13.12
28/09/2019,08:24:21,TEMP=16.6,BA=5.64,STAT.D=5.5,ExtBa=13.13
28/09/2019,08:27:21,TEMP=16.7,BA=5.64,STAT.D=5.5,ExtBa=13.10
28/09/2019,08:30:21,TEMP=16.8,BA=5.64,STAT.D=5.5,ExtBa=13.13
28/09/2019,08:34:03,TEMP=16.6,BA=5.64,STAT.A=5.5,ExtBa=13.20
28/09/2019,08:38:45,TEMP=16.3,BA=5.64,STAT.F,ExtBa=13.24
28/09/2019,08:51:21,TEMP=16.0,BA=5.64,STAT.D=5.5,ExtBa=13.48
28/09/2019,08:53:43,TEMP=16.4,BA=5.64,STAT.D=5.5,ExtBa=13.35
28/09/2019,08:57:21,TEMP=16.8,BA=5.64,STAT.D=5.5,ExtBa=13.33
28/09/2019,09:00:21,TEMP=17.1,BA=5.64,STAT.D=5.5,ExtBa=13.26
28/09/2019,09:03:21,TEMP=17.4,BA=5.64,STAT.D=5.5,ExtBa=13.20
28/09/2019,09:06:21,TEMP=17.5,BA=5.64,STAT.D=5.5,ExtBa=13.21
28/09/2019,09:08:43,TEMP=17.7,BA=5.64,STAT.D=5.5,ExtBa=13.18
28/09/2019,09:21:21,TEMP=17.4,BA=5.64,STAT.D=5.5,ExtBa=13.45
28/09/2019,09:23:43,TEMP=17.6,BA=5.64,STAT.D=5.5,ExtBa=13.40
28/09/2019,09:36:22,TEMP=17.1,BA=5.64,STAT.D=5.5,ExtBa=13.52
28/09/2019,09:38:45,TEMP=17.4,BA=5.64,STAT.F,ExtBa=13.42
28/09/2019,09:48:22,TEMP=17.4,BA=5.64,STAT.D=5.5,ExtBa=13.52
28/09/2019,09:53:44,TEMP=17.4,BA=5.64,STAT.D=5.5,ExtBa=13.50
28/09/2019,09:53:45,TEMP=17.4,BA=5.64,STAT.h
28/09/2019,10:03:22,TEMP=16.9,BA=5.64,STAT.D=5.5,ExtBa=13.57
28/09/2019,10:06:22,TEMP=17.2,BA=5.64,STAT.D=5.5,ExtBa=13.50
28/09/2019,10:08:44,TEMP=17.5,BA=5.64,STAT.D=5.5,ExtBa=13.35
28/09/2019,10:21:01,TEMP=17.7,BA=5.64,STAT.h
28/09/2019,10:23:23,TEMP=17.7,BA=5.64,STAT.h
28/09/2019,10:24:01,TEMP=17.7,BA=5.64,STAT.h
28/09/2019,10:27:01,TEMP=17.7,BA=5.64,STAT.h
28/09/2019,10:30:01,TEMP=17.7,BA=5.64,STAT.h
28/09/2019,10:33:01,TEMP=17.7,BA=5.64,STAT.h
28/09/2019,10:36:01,TEMP=17.7,BA=5.64,STAT.h
28/09/2019,10:38:45,TEMP=15.9,BA=5.64,STAT.F,ExtBa=13.65
28/09/2019,10:51:01,TEMP=16.2,BA=5.64,STAT.h
28/09/2019,10:53:23,TEMP=16.2,BA=5.64,STAT.h
28/09/2019,10:54:01,TEMP=16.2,BA=5.64,STAT.h
28/09/2019,10:57:01,TEMP=16.2,BA=5.64,STAT.h
28/09/2019,11:00:01,TEMP=16.2,BA=5.64,STAT.h
28/09/2019,11:03:01,TEMP=16.2,BA=5.64,STAT.h
28/09/2019,11:06:01,TEMP=16.2,BA=5.64,STAT.h
28/09/2019,11:08:23,TEMP=16.2,BA=5.64,STAT.h
28/09/2019,11:09:01,TEMP=16.2,BA=5.64,STAT.h
28/09/2019,11:12:01,TEMP=16.2,BA=5.64,STAT.h
28/09/2019,11:15:01,TEMP=16.2,BA=5.64,STAT.h
28/09/2019,11:18:01,TEMP=16.2,BA=5.64,STAT.h
28/09/2019,11:21:01,TEMP=16.2,BA=5.64,STAT.h
28/09/2019,11:23:23,TEMP=16.2,BA=5.64,STAT.h
28/09/2019,11:24:01,TEMP=16.2,BA=5.64,STAT.h
28/09/2019,11:27:01,TEMP=16.2,BA=5.64,STAT.h
28/09/2019,11:30:01,TEMP=16.2,BA=5.64,STAT.h
28/09/2019,11:33:01,TEMP=16.2,BA=5.64,STAT.h
28/09/2019,11:36:22,TEMP=15.9,BA=5.64,STAT.D=5.5,ExtBa=13.81
28/09/2019,11:37:25,TEMP=15.9,BA=5.64,STAT.h
28/09/2019,11:38:23,TEMP=15.9,BA=5.64,STAT.h
28/09/2019,11:39:01,TEMP=15.9,BA=5.64,STAT.h
28/09/2019,11:42:22,TEMP=16.2,BA=5.64,STAT.D=5.5,ExtBa=13.79
28/09/2019,11:42:42,TEMP=16.2,BA=5.64,STAT.h
28/09/2019,11:53:23,TEMP=16.2,BA=5.64,STAT.h
28/09/2019,11:54:01,TEMP=16.2,BA=5.64,STAT.h
28/09/2019,11:57:01,TEMP=16.2,BA=5.64,STAT.h
28/09/2019,12:00:01,TEMP=16.2,BA=5.64,STAT.h
28/09/2019,12:03:01,TEMP=16.2,BA=5.64,STAT.h
28/09/2019,12:06:01,TEMP=16.2,BA=5.64,STAT.h
28/09/2019,12:08:23,TEMP=16.2,BA=5.64,STAT.h
28/09/2019,12:09:01,TEMP=16.2,BA=5.64,STAT.h
28/09/2019,12:12:01,TEMP=16.2,BA=5.64,STAT.h
28/09/2019,12:15:01,TEMP=16.2,BA=5.64,STAT.h
28/09/2019,12:18:01,TEMP=16.2,BA=5.64,STAT.h
28/09/2019,12:21:01,TEMP=16.2,BA=5.64,STAT.h
28/09/2019,12:23:23,TEMP=16.2,BA=5.64,STAT.h
28/09/2019,12:24:01,TEMP=16.2,BA=5.64,STAT.h
28/09/2019,12:27:01,TEMP=16.2,BA=5.64,STAT.h
28/09/2019,12:30:01,TEMP=16.2,BA=5.64,STAT.h
28/09/2019,12:33:01,TEMP=16.2,BA=5.64,STAT.h
28/09/2019,12:36:01,TEMP=16.2,BA=5.64,STAT.h
28/09/2019,12:38:23,TEMP=16.2,BA=5.64,STAT.h
28/09/2019,12:39:01,TEMP=16.2,BA=5.64,STAT.h
28/09/2019,12:42:01,TEMP=16.2,BA=5.64,STAT.h
28/09/2019,12:45:01,TEMP=16.2,BA=5.64,STAT.h
28/09/2019,12:48:15,TEMP=16.2,BA=5.64,STAT.h
28/09/2019,12:53:44,TEMP=18.1,BA=5.64,STAT.D=5.5,ExtBa=13.79
28/09/2019,12:57:22,TEMP=18.4,BA=5.64,STAT.D=5.5,ExtBa=13.72
28/09/2019,13:08:23,TEMP=18.7,BA=5.64,STAT.h
28/09/2019,13:09:01,TEMP=18.7,BA=5.64,STAT.h
28/09/2019,13:12:22,TEMP=17.3,BA=5.64,STAT.D=5.5,ExtBa=13.78
28/09/2019,13:23:23,TEMP=17.4,BA=5.64,STAT.h
28/09/2019,13:24:22,TEMP=16.5,BA=5.64,STAT.D=5.5,ExtBa=13.77
28/09/2019,13:36:22,TEMP=16.9,BA=5.64,STAT.D=5.5,ExtBa=13.77
28/09/2019,13:38:45,TEMP=17.4,BA=5.64,STAT.F,ExtBa=13.60
28/09/2019,13:51:22,TEMP=17.3,BA=5.64,STAT.D=5.5,ExtBa=13.76
28/09/2019,13:53:43,TEMP=17.6,BA=5.64,STAT.D=5.5,ExtBa=13.70
28/09/2019,14:06:01,TEMP=17.8,BA=5.64,STAT.h
28/09/2019,14:08:23,TEMP=17.8,BA=5.64,STAT.h
28/09/2019,14:09:01,TEMP=17.8,BA=5.64,STAT.h
28/09/2019,14:12:01,TEMP=17.8,BA=5.64,STAT.h
28/09/2019,14:15:01,TEMP=17.8,BA=5.64,STAT.h
28/09/2019,14:18:01,TEMP=17.8,BA=5.64,STAT.h
28/09/2019,14:21:01,TEMP=17.8,BA=5.64,STAT.h
28/09/2019,14:23:43,TEMP=15.9,BA=5.64,STAT.D=5.5,ExtBa=13.77
28/09/2019,14:27:21,TEMP=16.6,BA=5.64,STAT.D=5.5,ExtBa=13.58
28/09/2019,14:30:21,TEMP=17.1,BA=5.64,STAT.D=5.5,ExtBa=13.50
28/09/2019,14:33:21,TEMP=17.5,BA=5.64,STAT.D=5.5,ExtBa=13.40
28/09/2019,14:36:21,TEMP=17.7,BA=5.64,STAT.D=5.5,ExtBa=13.27
28/09/2019,14:38:45,TEMP=18.0,BA=5.64,STAT.F,ExtBa=13.13
28/09/2019,14:54:00,TEMP=18.6,BA=5.64,STAT.A=5.5,ExtBa=12.93
28/09/2019,14:57:21,TEMP=18.5,BA=5.64,STAT.D=5.5,ExtBa=13.06
28/09/2019,14:59:15,TEMP=18.7,BA=5.64,STAT.A=5.5,ExtBa=13.05
28/09/2019,15:11:33,TEMP=18.8,BA=5.64,STAT.h
28/09/2019,15:21:21,TEMP=17.8,BA=5.64,STAT.D=5.5,ExtBa=13.43
28/09/2019,15:23:15,TEMP=18.1,BA=5.64,STAT.C=5.5,ExtBa=13.37
28/09/2019,15:31:13,TEMP=17.8,BA=5.64,STAT.A=5.5,ExtBa=13.45
28/09/2019,15:38:50,TEMP=18.0,BA=5.64,STAT.h
28/09/2019,15:45:21,TEMP=18.0,BA=5.64,STAT.h
28/09/2019,15:48:01,TEMP=18.0,BA=5.64,STAT.h
28/09/2019,15:51:01,TEMP=18.0,BA=5.64,STAT.h
28/09/2019,15:51:18,TEMP=18.0,BA=5.64,STAT.h
28/09/2019,15:54:01,TEMP=18.0,BA=5.64,STAT.h
28/09/2019,15:56:58,TEMP=15.1,BA=5.64,STAT.B=5.5,ExtBa=13.56
28/09/2019,16:07:56,TEMP=15.0,BA=5.64,STAT.A=5.5,ExtBa=13.59
28/09/2019,16:16:35,TEMP=15.4,BA=5.64,STAT.A=5.5,ExtBa=13.55
28/09/2019,16:21:21,TEMP=15.7,BA=5.64,STAT.D=5.5,ExtBa=13.40
28/09/2019,16:23:33,TEMP=16.0,BA=5.64,STAT.A=5.5,ExtBa=13.35
28/09/2019,16:27:21,TEMP=15.9,BA=5.64,STAT.D=5.5,ExtBa=13.37
28/09/2019,16:29:19,TEMP=16.2,BA=5.64,STAT.A=5.5,ExtBa=13.29
28/09/2019,16:33:21,TEMP=16.0,BA=5.64,STAT.D=5.5,ExtBa=13.33
28/09/2019,16:35:26,TEMP=16.4,BA=5.64,STAT.A=5.5,ExtBa=13.17
28/09/2019,16:38:17,TEMP=16.3,BA=5.64,STAT.A=5.5,ExtBa=13.18